Time;durP1;ratioP1;P1;durP2;ratioP2;P2;SDS_P1;SDS_P2;PMS_P1;PMS_P2;Temp;Humidity;BMP_temperature;BMP_pressure;BME280_temperature;BME280_humidity;BME280_pressure;Samples;Min_cycle;Max_cycle;Signal;HPM_P1;HPM_P2
2024/03/07 00:00:27;;;;;;;;;;;;;;;;;;4946579;28;92706;-70
2024/03/07 00:02:54;;;;;;;;;;;;;;;;;;4946876;28;92810;-70
2024/03/07 00:05:20;;;;;;;;;;;;;;;;;;4945457;28;92783;-70
2024/03/07 00:07:46;;;;;;;;;;;;;;;;;;4945851;28;95304;-70
2024/03/07 00:10:12;;;;;;;;;;;;;;;;;;4937576;28;93920;-71
2024/03/07 00:12:41;;;;;;;;;;;;;;;;;;4931217;28;91692;-71
2024/03/07 00:15:10;;;;;;;;;;;;;;;;;;4927778;28;93007;-70
2024/03/07 00:17:36;;;;;;;;;;;;;;;;;;4927523;28;92994;-70
2024/03/07 00:20:02;;;;;;;;;;;;;;;;;;4927148;28;93840;-70
2024/03/07 00:22:29;;;;;;;;;;;;;;;;;;4942647;28;93319;-70
2024/03/07 00:24:55;;;;;;;;;;;;;;;;;;4946072;28;92621;-71
2024/03/07 00:27:20;;;;;;;;;;;;;;;;;;4947499;28;92887;-71
2024/03/07 00:29:52;;;;;;;;;;;;;;;;;;4947020;28;92903;-71
2024/03/07 00:32:18;;;;;;;;;;;;;;;;;;4949970;28;92358;-71
2024/03/07 00:34:43;;;;;;;;;;;;;;;;;;4945708;28;95239;-71
2024/03/07 00:37:09;;;;;;;;;;;;;;;;;;4947629;28;93188;-71
2024/03/07 00:39:34;;;;;;;;;;;;;;;;;;4947023;28;93392;-70
2024/03/07 00:42:00;;;;;;;;;;;;;;;;;;4946836;28;92207;-71
2024/03/07 00:44:25;;;;;;;;;;;;;;;;;;4945007;28;93392;-71
2024/03/07 00:46:50;;;;;;;;;;;;;;;;;;4946410;28;93398;-70
2024/03/07 00:49:16;;;;;;;;;;;;;;;;;;4946624;28;92973;-70
2024/03/07 00:51:41;;;;;;;;;;;;;;;;;;4946609;28;92208;-71
2024/03/07 00:54:06;;;;;;;;;;;;;;;;;;4949218;28;92702;-70
2024/03/07 00:56:32;;;;;;;;;;;;;;;;;;4945263;28;92325;-69
2024/03/07 00:58:57;;;;;;;;;;;;;;;;;;4946464;28;92698;-70
2024/03/07 01:01:22;;;;;;;;;;;;;;;;;;4947007;28;92061;-71
2024/03/07 01:03:47;;;;;;;;;;;;;;;;;;4946691;28;92139;-70
2024/03/07 01:06:13;;;;;;;;;;;;;;;;;;4946325;28;92680;-71
2024/03/07 01:08:38;;;;;;;;;;;;;;;;;;4945699;28;93989;-70
2024/03/07 01:11:09;;;;;;;;;;;;;;;;;;4945699;28;92240;-70
2024/03/07 01:13:35;;;;;;;;;;;;;;;;;;4946516;28;92769;-70
2024/03/07 01:16:00;;;;;;;;;;;;;;;;;;4949169;28;93026;-71
2024/03/07 01:18:25;;;;;;;;;;;;;;;;;;4946040;28;93441;-71
2024/03/07 01:20:51;;;;;;;;;;;;;;;;;;4945771;28;92947;-70
2024/03/07 01:23:16;;;;;;;;;;;;;;;;;;4946124;28;92676;-69
2024/03/07 01:25:41;;;;;;;;;;;;;;;;;;4946311;28;93179;-69
2024/03/07 01:28:06;;;;;;;;;;;;;;;;;;4945519;28;92863;-71
2024/03/07 01:30:32;;;;;;;;;;;;;;;;;;4945873;28;92466;-70
2024/03/07 01:32:57;;;;;;;;;;;;;;;;;;4945628;28;93740;-70
2024/03/07 01:35:22;;;;;;;;;;;;;;;;;;4946253;28;92825;-71
2024/03/07 01:37:47;;;;;;;;;;;;;;;;;;4949051;28;92238;-70
2024/03/07 01:40:14;;;;;;;;;;;;;;;;;;4945919;28;92543;-71
2024/03/07 01:42:39;;;;;;;;;;;;;;;;;;4946164;28;92208;-70
2024/03/07 01:45:05;;;;;;;;;;;;;;;;;;4946107;28;92790;-70
2024/03/07 01:47:30;;;;;;;;;;;;;;;;;;4945536;28;92880;-70
2024/03/07 01:49:56;;;;;;;;;;;;;;;;;;4946839;28;92032;-70
2024/03/07 01:52:22;;;;;;;;;;;;;;;;;;4946155;28;92945;-70
2024/03/07 01:54:48;;;;;;;;;;;;;;;;;;4945943;28;92920;-70
2024/03/07 01:57:13;;;;;;;;;;;;;;;;;;4945561;28;93589;-71
2024/03/07 01:59:39;;;;;;;;;;;;;;;;;;4948508;28;93251;-69
2024/03/07 02:02:05;;;;;;;;;;;;;;;;;;4945077;28;92830;-70
2024/03/07 02:04:30;;;;;;;;;;;;;;;;;;4945144;28;92838;-70
2024/03/07 02:06:56;;;;;;;;;;;;;;;;;;4945523;28;92872;-70
2024/03/07 02:09:21;;;;;;;;;;;;;;;;;;4945508;28;92281;-70
2024/03/07 02:11:49;;;;;;;;;;;;;;;;;;4944205;28;95084;-71
2024/03/07 02:14:15;;;;;;;;;;;;;;;;;;4946187;28;92246;-71
2024/03/07 02:16:40;;;;;;;;;;;;;;;;;;4945424;28;92645;-71
2024/03/07 02:19:06;;;;;;;;;;;;;;;;;;4948326;28;92637;-71
2024/03/07 02:21:32;;;;;;;;;;;;;;;;;;4944345;28;93161;-70
2024/03/07 02:23:57;;;;;;;;;;;;;;;;;;4945245;28;94969;-71
2024/03/07 02:26:23;;;;;;;;;;;;;;;;;;4945726;28;92519;-70
2024/03/07 02:28:48;;;;;;;;;;;;;;;;;;4943590;28;92735;-69
2024/03/07 02:31:13;;;;;;;;;;;;;;;;;;4928753;28;95532;-70
2024/03/07 02:33:40;;;;;;;;;;;;;;;;;;4925471;28;92935;-70
2024/03/07 02:36:05;;;;;;;;;;;;;;;;;;4940797;28;92783;-70
2024/03/07 02:38:30;;;;;;;;;;;;;;;;;;4926335;28;93215;-71
2024/03/07 02:40:56;;;;;;;;;;;;;;;;;;4928625;28;92934;-70
2024/03/07 02:43:21;;;;;;;;;;;;;;;;;;4925643;28;92561;-70
2024/03/07 02:45:46;;;;;;;;;;;;;;;;;;4924894;28;93704;-71
2024/03/07 02:48:11;;;;;;;;;;;;;;;;;;4925428;28;92893;-70
2024/03/07 02:50:40;;;;;;;;;;;;;;;;;;4924338;28;95132;-70
2024/03/07 02:53:05;;;;;;;;;;;;;;;;;;4934154;28;95448;-70
2024/03/07 02:55:31;;;;;;;;;;;;;;;;;;4945104;28;92787;-69
2024/03/07 02:57:58;;;;;;;;;;;;;;;;;;4944172;28;95147;-69
2024/03/07 03:00:26;;;;;;;;;;;;;;;;;;4943765;28;95331;-69
2024/03/07 03:02:52;;;;;;;;;;;;;;;;;;4948689;28;91885;-69
2024/03/07 03:05:18;;;;;;;;;;;;;;;;;;4944904;28;95762;-70
2024/03/07 03:07:52;;;;;;;;;;;;;;;;;;4945026;28;92287;-71
2024/03/07 03:10:17;;;;;;;;;;;;;;;;;;4944484;28;93094;-71
2024/03/07 03:12:44;;;;;;;;;;;;;;;;;;4943227;28;95979;-70
2024/03/07 03:15:11;;;;;;;;;;;;;;;;;;4942393;28;92269;-70
2024/03/07 03:17:36;;;;;;;;;;;;;;;;;;4944282;28;92668;-71
2024/03/07 03:20:03;;;;;;;;;;;;;;;;;;4942905;28;95242;-70
2024/03/07 03:22:28;;;;;;;;;;;;;;;;;;4944538;28;92915;-70
2024/03/07 03:24:55;;;;;;;;;;;;;;;;;;4947322;28;92536;-70
2024/03/07 03:27:20;;;;;;;;;;;;;;;;;;4944944;28;91909;-71
2024/03/07 03:29:47;;;;;;;;;;;;;;;;;;4944528;28;92659;-69
2024/03/07 03:32:13;;;;;;;;;;;;;;;;;;4959327;28;95869;-70
2024/03/07 03:34:38;;;;;;;;;;;;;;;;;;4943492;28;93757;-69
2024/03/07 03:37:04;;;;;;;;;;;;;;;;;;4943954;28;93336;-70
2024/03/07 03:39:29;;;;;;;;;;;;;;;;;;4944557;28;92752;-70
2024/03/07 03:41:55;;;;;;;;;;;;;;;;;;4945071;28;92240;-71
2024/03/07 03:44:20;;;;;;;;;;;;;;;;;;4959106;28;95203;-71
2024/03/07 03:46:45;;;;;;;;;;;;;;;;;;4961919;28;95713;-71
2024/03/07 03:49:11;;;;;;;;;;;;;;;;;;4944275;28;93439;-71
2024/03/07 03:51:36;;;;;;;;;;;;;;;;;;4944069;28;92080;-71
2024/03/07 03:54:01;;;;;;;;;;;;;;;;;;4943981;28;92221;-71
2024/03/07 03:56:27;;;;;;;;;;;;;;;;;;4944357;28;92893;-70
2024/03/07 03:58:52;;;;;;;;;;;;;;;;;;4942181;28;93878;-70
2024/03/07 04:01:17;;;;;;;;;;;;;;;;;;4944079;28;92530;-70
2024/03/07 04:03:42;;;;;;;;;;;;;;;;;;4944010;28;92702;-69
2024/03/07 04:06:07;;;;;;;;;;;;;;;;;;4943593;28;93093;-70
2024/03/07 04:08:33;;;;;;;;;;;;;;;;;;4947009;28;92588;-69
2024/03/07 04:11:00;;;;;;;;;;;;;;;;;;4943703;28;93369;-70
2024/03/07 04:13:25;;;;;;;;;;;;;;;;;;4943973;28;92714;-70
2024/03/07 04:15:51;;;;;;;;;;;;;;;;;;4944326;28;92491;-71
2024/03/07 04:18:16;;;;;;;;;;;;;;;;;;4943621;28;92598;-70
2024/03/07 04:20:44;;;;;;;;;;;;;;;;;;4943892;28;92645;-70
2024/03/07 04:23:09;;;;;;;;;;;;;;;;;;4943453;28;93351;-71
2024/03/07 04:25:35;;;;;;;;;;;;;;;;;;4944292;28;92814;-70
2024/03/07 04:28:00;;;;;;;;;;;;;;;;;;4950131;28;92812;-70
2024/03/07 04:30:25;;;;;;;;;;;;;;;;;;4946798;28;92748;-69
2024/03/07 04:32:51;;;;;;;;;;;;;;;;;;4946797;28;92421;-69
2024/03/07 04:35:17;;;;;;;;;;;;;;;;;;4946777;28;92918;-72
2024/03/07 04:37:42;;;;;;;;;;;;;;;;;;4946847;28;92930;-70
2024/03/07 04:40:15;;;;;;;;;;;;;;;;;;4947290;28;91518;-70
2024/03/07 04:42:41;;;;;;;;;;;;;;;;;;4946786;28;92634;-70
2024/03/07 04:45:06;;;;;;;;;;;;;;;;;;4946814;28;92841;-71
2024/03/07 04:47:31;;;;;;;;;;;;;;;;;;4946077;28;93631;-71
2024/03/07 04:49:57;;;;;;;;;;;;;;;;;;4949471;28;93333;-70
2024/03/07 04:52:22;;;;;;;;;;;;;;;;;;4945849;28;92569;-71
2024/03/07 04:54:47;;;;;;;;;;;;;;;;;;4927038;28;92552;-71
2024/03/07 04:57:13;;;;;;;;;;;;;;;;;;4927111;28;92290;-70
2024/03/07 04:59:38;;;;;;;;;;;;;;;;;;4927499;28;92828;-71
2024/03/07 05:02:03;;;;;;;;;;;;;;;;;;4927468;28;92925;-69
2024/03/07 05:04:29;;;;;;;;;;;;;;;;;;4926766;28;92171;-70
2024/03/07 05:06:54;;;;;;;;;;;;;;;;;;4931128;28;92844;-70
2024/03/07 05:09:25;;;;;;;;;;;;;;;;;;4929298;28;93629;-70
2024/03/07 05:11:54;;;;;;;;;;;;;;;;;;4934909;28;93760;-70
2024/03/07 05:14:20;;;;;;;;;;;;;;;;;;4939224;28;95180;-71
2024/03/07 05:16:45;;;;;;;;;;;;;;;;;;4938119;28;93238;-70
2024/03/07 05:19:10;;;;;;;;;;;;;;;;;;4932465;28;92647;-74
2024/03/07 05:21:40;;;;;;;;;;;;;;;;;;4935475;28;93043;-71
2024/03/07 05:24:08;;;;;;;;;;;;;;;;;;4940783;28;92696;-70
2024/03/07 05:26:37;;;;;;;;;;;;;;;;;;4936360;28;92278;-72
2024/03/07 05:29:07;;;;;;;;;;;;;;;;;;4939011;28;92669;-71
2024/03/07 05:31:34;;;;;;;;;;;;;;;;;;4931215;28;96188;-70
2024/03/07 05:34:00;;;;;;;;;;;;;;;;;;4939938;28;92798;-70
2024/03/07 05:36:26;;;;;;;;;;;;;;;;;;4937573;28;95576;-71
2024/03/07 05:38:51;;;;;;;;;;;;;;;;;;4938113;28;92533;-70
2024/03/07 05:41:17;;;;;;;;;;;;;;;;;;4933749;28;92887;-70
2024/03/07 05:43:43;;;;;;;;;;;;;;;;;;4932594;28;93099;-70
2024/03/07 05:46:09;;;;;;;;;;;;;;;;;;4935718;28;92732;-71
2024/03/07 05:48:35;;;;;;;;;;;;;;;;;;4930569;28;92662;-70
2024/03/07 05:51:00;;;;;;;;;;;;;;;;;;4932944;28;94457;-70
2024/03/07 05:53:26;;;;;;;;;;;;;;;;;;4936417;28;92169;-70
2024/03/07 05:55:51;;;;;;;;;;;;;;;;;;4938225;28;93489;-71
2024/03/07 05:58:22;;;;;;;;;;;;;;;;;;4930948;28;92420;-70
2024/03/07 06:00:51;;;;;;;;;;;;;;;;;;4927771;28;94153;-71
2024/03/07 06:03:17;;;;;;;;;;;;;;;;;;4930912;28;92887;-71
2024/03/07 06:05:43;;;;;;;;;;;;;;;;;;4932489;28;93341;-70
2024/03/07 06:08:08;;;;;;;;;;;;;;;;;;4937216;28;93774;-71
2024/03/07 06:10:34;;;;;;;;;;;;;;;;;;4930054;28;93187;-70
2024/03/07 06:13:01;;;;;;;;;;;;;;;;;;4938830;28;93133;-70
2024/03/07 06:15:27;;;;;;;;;;;;;;;;;;4931952;28;93000;-69
2024/03/07 06:17:52;;;;;;;;;;;;;;;;;;4939095;28;93846;-71
2024/03/07 06:20:24;;;;;;;;;;;;;;;;;;4931615;28;92261;-70
2024/03/07 06:22:50;;;;;;;;;;;;;;;;;;4932466;28;93818;-72
2024/03/07 06:25:20;;;;;;;;;;;;;;;;;;4932818;28;94500;-71
2024/03/07 06:27:49;;;;;;;;;;;;;;;;;;4930397;28;94245;-71
2024/03/07 06:30:17;;;;;;;;;;;;;;;;;;4935240;28;92917;-72
2024/03/07 06:32:43;;;;;;;;;;;;;;;;;;4929827;28;92898;-72
2024/03/07 06:35:08;;;;;;;;;;;;;;;;;;4940181;28;94616;-69
2024/03/07 06:37:34;;;;;;;;;;;;;;;;;;4938685;28;93110;-71
2024/03/07 06:39:59;;;;;;;;;;;;;;;;;;4934906;28;92766;-69
2024/03/07 06:42:24;;;;;;;;;;;;;;;;;;4930781;28;91545;-69
2024/03/07 06:44:49;;;;;;;;;;;;;;;;;;4937223;28;92457;-68
2024/03/07 06:47:14;;;;;;;;;;;;;;;;;;4934101;28;93040;-71
2024/03/07 06:49:41;;;;;;;;;;;;;;;;;;4928693;28;93881;-76
2024/03/07 06:52:08;;;;;;;;;;;;;;;;;;4935054;28;92633;-71
2024/03/07 06:54:34;;;;;;;;;;;;;;;;;;4935348;28;92320;-72
2024/03/07 06:56:59;;;;;;;;;;;;;;;;;;4939885;28;92175;-72
2024/03/07 06:59:24;;;;;;;;;;;;;;;;;;4945318;28;92435;-72
2024/03/07 07:01:51;;;;;;;;;;;;;;;;;;4943488;28;93333;-72
2024/03/07 07:04:16;;;;;;;;;;;;;;;;;;4944763;28;93351;-71
2024/03/07 07:06:42;;;;;;;;;;;;;;;;;;4942905;28;92593;-71
2024/03/07 07:09:08;;;;;;;;;;;;;;;;;;4936750;28;92873;-72
2024/03/07 07:11:34;;;;;;;;;;;;;;;;;;4931857;28;93072;-71
2024/03/07 07:13:59;;;;;;;;;;;;;;;;;;4942960;28;93205;-72
2024/03/07 07:16:24;;;;;;;;;;;;;;;;;;4937258;28;92905;-72
2024/03/07 07:18:50;;;;;;;;;;;;;;;;;;4936978;28;92220;-70
2024/03/07 07:21:15;;;;;;;;;;;;;;;;;;4940676;28;92845;-69
2024/03/07 07:23:41;;;;;;;;;;;;;;;;;;4932043;28;93027;-70
2024/03/07 07:26:06;;;;;;;;;;;;;;;;;;4940676;28;92769;-70
2024/03/07 07:28:31;;;;;;;;;;;;;;;;;;4935023;28;93817;-72
2024/03/07 07:30:56;;;;;;;;;;;;;;;;;;4938726;28;93212;-70
2024/03/07 07:33:22;;;;;;;;;;;;;;;;;;4937617;28;92482;-72
2024/03/07 07:35:47;;;;;;;;;;;;;;;;;;4926594;28;93303;-72
2024/03/07 07:38:14;;;;;;;;;;;;;;;;;;4934766;28;94053;-70
2024/03/07 07:40:41;;;;;;;;;;;;;;;;;;4939920;28;94586;-70
2024/03/07 07:43:07;;;;;;;;;;;;;;;;;;4936061;28;92995;-70
2024/03/07 07:45:35;;;;;;;;;;;;;;;;;;4928409;28;93780;-70
2024/03/07 07:48:00;;;;;;;;;;;;;;;;;;4933774;28;92863;-69
2024/03/07 07:50:26;;;;;;;;;;;;;;;;;;4930586;28;92875;-70
2024/03/07 07:52:55;;;;;;;;;;;;;;;;;;4934165;28;92734;-70
2024/03/07 07:55:21;;;;;;;;;;;;;;;;;;4930803;28;92497;-70
2024/03/07 07:57:48;;;;;;;;;;;;;;;;;;4933488;28;92404;-69
2024/03/07 08:00:23;;;;;;;;;;;;;;;;;;4932644;28;93566;-69
2024/03/07 08:02:54;;;;;;;;;;;;;;;;;;4939267;28;94005;-70
2024/03/07 08:05:20;;;;;;;;;;;;;;;;;;4936034;28;93242;-69
2024/03/07 08:07:46;;;;;;;;;;;;;;;;;;4935252;28;92928;-69
2024/03/07 08:10:11;;;;;;;;;;;;;;;;;;4937348;28;93404;-69
2024/03/07 08:12:41;;;;;;;;;;;;;;;;;;4937526;28;93131;-68
2024/03/07 08:15:06;;;;;;;;;;;;;;;;;;4937526;28;93333;-69
2024/03/07 08:17:31;;;;;;;;;;;;;;;;;;4935662;28;92792;-68
2024/03/07 08:19:57;;;;;;;;;;;;;;;;;;4938251;28;92472;-69
2024/03/07 08:22:22;;;;;;;;;;;;;;;;;;4936190;28;95989;-68
2024/03/07 08:24:47;;;;;;;;;;;;;;;;;;4937969;28;92320;-69
2024/03/07 08:27:13;;;;;;;;;;;;;;;;;;4942376;28;93496;-68
2024/03/07 08:29:39;;;;;;;;;;;;;;;;;;4935440;28;92777;-70
2024/03/07 08:32:04;;;;;;;;;;;;;;;;;;4936659;28;92909;-71
2024/03/07 08:34:29;;;;;;;;;;;;;;;;;;4936162;28;92884;-72
2024/03/07 08:36:55;;;;;;;;;;;;;;;;;;4939947;28;92586;-71
2024/03/07 08:39:20;;;;;;;;;;;;;;;;;;4935731;28;92867;-71
2024/03/07 08:41:46;;;;;;;;;;;;;;;;;;4932148;28;93616;-71
2024/03/07 08:44:13;;;;;;;;;;;;;;;;;;4939795;28;91536;-71
2024/03/07 08:46:38;;;;;;;;;;;;;;;;;;4940091;28;92680;-73
2024/03/07 08:49:05;;;;;;;;;;;;;;;;;;4930665;28;92601;-70
2024/03/07 08:51:30;;;;;;;;;;;;;;;;;;4937898;28;93370;-71
2024/03/07 08:53:55;;;;;;;;;;;;;;;;;;4939642;28;93341;-72
2024/03/07 08:56:20;;;;;;;;;;;;;;;;;;4936011;28;92665;-71
2024/03/07 08:58:45;;;;;;;;;;;;;;;;;;4939140;28;92730;-73
2024/03/07 09:01:10;;;;;;;;;;;;;;;;;;4935288;28;95791;-73
2024/03/07 09:03:36;;;;;;;;;;;;;;;;;;4936788;28;92701;-72
2024/03/07 09:06:02;;;;;;;;;;;;;;;;;;4940451;28;92759;-72
2024/03/07 09:08:28;;;;;;;;;;;;;;;;;;4942178;28;92210;-73
2024/03/07 09:10:55;;;;;;;;;;;;;;;;;;4941896;28;92938;-72
2024/03/07 09:13:20;;;;;;;;;;;;;;;;;;4938638;28;94153;-73
2024/03/07 09:15:45;;;;;;;;;;;;;;;;;;4943675;28;94073;-72
2024/03/07 09:18:12;;;;;;;;;;;;;;;;;;4944654;28;93351;-73
2024/03/07 09:20:37;;;;;;;;;;;;;;;;;;4943974;28;92843;-72
2024/03/07 09:23:03;;;;;;;;;;;;;;;;;;4935481;28;92430;-72
2024/03/07 09:25:32;;;;;;;;;;;;;;;;;;4944618;28;92753;-73
2024/03/07 09:27:58;;;;;;;;;;;;;;;;;;4942000;28;94078;-72
2024/03/07 09:30:26;;;;;;;;;;;;;;;;;;4932927;28;92729;-71
2024/03/07 09:32:51;;;;;;;;;;;;;;;;;;4933643;28;94538;-71
2024/03/07 09:35:16;;;;;;;;;;;;;;;;;;4941616;28;92318;-72
2024/03/07 09:37:42;;;;;;;;;;;;;;;;;;4942059;28;92460;-72
2024/03/07 09:40:11;;;;;;;;;;;;;;;;;;4934517;28;94014;-72
2024/03/07 09:42:41;;;;;;;;;;;;;;;;;;4939779;28;92260;-71
2024/03/07 09:45:07;;;;;;;;;;;;;;;;;;4931731;28;92590;-72
2024/03/07 09:47:32;;;;;;;;;;;;;;;;;;4940962;28;93530;-72
2024/03/07 09:49:58;;;;;;;;;;;;;;;;;;4938561;28;92234;-72
2024/03/07 09:52:23;;;;;;;;;;;;;;;;;;4941332;28;92474;-72
2024/03/07 09:54:49;;;;;;;;;;;;;;;;;;4939461;28;92528;-72
2024/03/07 09:57:14;;;;;;;;;;;;;;;;;;4933648;28;92594;-73
2024/03/07 09:59:42;;;;;;;;;;;;;;;;;;4934862;28;93170;-72
2024/03/07 10:02:09;;;;;;;;;;;;;;;;;;4935691;28;92726;-72
2024/03/07 10:04:45;;;;;;;;;;;;;;;;;;4927414;28;93214;-73
2024/03/07 10:07:13;;;;;;;;;;;;;;;;;;4933719;28;94332;-72
2024/03/07 10:09:40;;;;;;;;;;;;;;;;;;4936046;28;92914;-71
2024/03/07 10:12:05;;;;;;;;;;;;;;;;;;4938176;28;93656;-71
2024/03/07 10:14:34;;;;;;;;;;;;;;;;;;4942691;28;93684;-72
2024/03/07 10:17:00;;;;;;;;;;;;;;;;;;4944178;28;92670;-72
2024/03/07 10:19:25;;;;;;;;;;;;;;;;;;4934361;28;92865;-71
2024/03/07 10:21:51;;;;;;;;;;;;;;;;;;4937837;28;92929;-72
2024/03/07 10:24:17;;;;;;;;;;;;;;;;;;4937114;28;92407;-71
2024/03/07 10:26:43;;;;;;;;;;;;;;;;;;4933897;28;93251;-71
2024/03/07 10:29:08;;;;;;;;;;;;;;;;;;4932057;28;93497;-72
2024/03/07 10:31:34;;;;;;;;;;;;;;;;;;4937996;28;93260;-71
2024/03/07 10:34:08;;;;;;;;;;;;;;;;;;4927983;28;92770;-75
2024/03/07 10:36:33;;;;;;;;;;;;;;;;;;4938432;28;92287;-70
2024/03/07 10:39:17;;;;;;;;;;;;;;;;;;4936706;28;92888;-70
2024/03/07 10:41:49;;;;;;;;;;;;;;;;;;4933948;28;93459;-72
2024/03/07 10:44:17;;;;;;;;;;;;;;;;;;4937494;28;92671;-72
2024/03/07 10:46:46;;;;;;;;;;;;;;;;;;4936256;28;92121;-72
2024/03/07 10:49:14;;;;;;;;;;;;;;;;;;4934276;28;92662;-72
2024/03/07 10:51:46;;;;;;;;;;;;;;;;;;4929338;28;93040;-72
2024/03/07 10:54:17;;;;;;;;;;;;;;;;;;4939120;28;95047;-72
2024/03/07 10:56:42;;;;;;;;;;;;;;;;;;4943984;28;92279;-72
2024/03/07 10:59:20;;;;;;;;;;;;;;;;;;4936387;28;92913;-72
2024/03/07 11:01:59;;;;;;;;;;;;;;;;;;4935211;28;93266;-73
2024/03/07 11:04:24;;;;;;;;;;;;;;;;;;4943086;28;92298;-75
2024/03/07 11:06:50;;;;;;;;;;;;;;;;;;4942662;28;92744;-72
2024/03/07 11:09:22;;;;;;;;;;;;;;;;;;4932121;28;92515;-72
2024/03/07 11:11:48;;;;;;;;;;;;;;;;;;4943419;28;93370;-71
2024/03/07 11:14:16;;;;;;;;;;;;;;;;;;4938528;28;93110;-72
2024/03/07 11:16:42;;;;;;;;;;;;;;;;;;4934148;28;92607;-75
2024/03/07 11:19:27;;;;;;;;;;;;;;;;;;4937097;28;95414;-73
2024/03/07 11:21:54;;;;;;;;;;;;;;;;;;4939219;28;92450;-72
2024/03/07 11:24:32;;;;;;;;;;;;;;;;;;4940839;28;92639;-72
2024/03/07 11:27:00;;;;;;;;;;;;;;;;;;4937541;28;94213;-74
2024/03/07 11:29:43;;;;;;;;;;;;;;;;;;4934746;28;92643;-75
2024/03/07 11:32:11;;;;;;;;;;;;;;;;;;4936461;28;92614;-75
2024/03/07 11:34:39;;;;;;;;;;;;;;;;;;4933213;28;92968;-75
2024/03/07 11:37:07;;;;;;;;;;;;;;;;;;4932488;28;91524;-75
2024/03/07 11:39:39;;;;;;;;;;;;;;;;;;4935782;28;92896;-73
2024/03/07 11:42:06;;;;;;;;;;;;;;;;;;4942023;28;93026;-72
2024/03/07 11:44:31;;;;;;;;;;;;;;;;;;4942372;28;93193;-71
2024/03/07 11:46:57;;;;;;;;;;;;;;;;;;4940520;28;92873;-72
2024/03/07 11:49:23;;;;;;;;;;;;;;;;;;4944490;28;92386;-72
2024/03/07 11:51:48;;;;;;;;;;;;;;;;;;4945560;28;94063;-73
2024/03/07 11:54:14;;;;;;;;;;;;;;;;;;4935923;28;95383;-72
2024/03/07 11:56:39;;;;;;;;;;;;;;;;;;4941287;28;92661;-73
2024/03/07 11:59:05;;;;;;;;;;;;;;;;;;4943389;28;95171;-72
2024/03/07 12:01:31;;;;;;;;;;;;;;;;;;4940588;28;91978;-73
2024/03/07 12:03:56;;;;;;;;;;;;;;;;;;4942737;28;92930;-71
2024/03/07 12:06:22;;;;;;;;;;;;;;;;;;4942874;28;92882;-71
2024/03/07 12:08:49;;;;;;;;;;;;;;;;;;4934764;28;93740;-73
2024/03/07 12:11:15;;;;;;;;;;;;;;;;;;4934556;28;94595;-73
2024/03/07 12:13:41;;;;;;;;;;;;;;;;;;4941243;28;93276;-72
2024/03/07 12:16:08;;;;;;;;;;;;;;;;;;4940733;28;92327;-72
2024/03/07 12:18:34;;;;;;;;;;;;;;;;;;4934882;28;94419;-73
2024/03/07 12:21:03;;;;;;;;;;;;;;;;;;4937992;28;92973;-73
2024/03/07 12:23:28;;;;;;;;;;;;;;;;;;4940642;28;92901;-72
2024/03/07 12:26:02;;;;;;;;;;;;;;;;;;4935548;28;92795;-72
2024/03/07 12:28:30;;;;;;;;;;;;;;;;;;4948000;28;92648;-72
2024/03/07 12:30:56;;;;;;;;;;;;;;;;;;4935456;28;93163;-72
2024/03/07 12:33:25;;;;;;;;;;;;;;;;;;4939406;28;94765;-72
2024/03/07 12:35:52;;;;;;;;;;;;;;;;;;4941312;28;93409;-72
2024/03/07 12:38:17;;;;;;;;;;;;;;;;;;4939640;28;92731;-72
2024/03/07 12:40:43;;;;;;;;;;;;;;;;;;4937094;28;92843;-72
2024/03/07 12:43:14;;;;;;;;;;;;;;;;;;4927361;28;93333;-72
2024/03/07 12:45:49;;;;;;;;;;;;;;;;;;4942114;28;92627;-72
2024/03/07 12:48:16;;;;;;;;;;;;;;;;;;4939227;28;93606;-73
2024/03/07 12:50:41;;;;;;;;;;;;;;;;;;4936534;28;92745;-72
2024/03/07 12:53:11;;;;;;;;;;;;;;;;;;4938550;28;93319;-72
2024/03/07 12:55:37;;;;;;;;;;;;;;;;;;4941169;28;93526;-72
2024/03/07 12:58:04;;;;;;;;;;;;;;;;;;4933940;28;95455;-73
2024/03/07 13:00:30;;;;;;;;;;;;;;;;;;4938016;28;92908;-73
2024/03/07 13:02:57;;;;;;;;;;;;;;;;;;4943942;28;92435;-72
2024/03/07 13:05:22;;;;;;;;;;;;;;;;;;4942712;28;92411;-72
2024/03/07 13:07:48;;;;;;;;;;;;;;;;;;4938866;28;92872;-74
2024/03/07 13:10:20;;;;;;;;;;;;;;;;;;4940179;28;93613;-72
2024/03/07 13:12:45;;;;;;;;;;;;;;;;;;4932980;28;93226;-73
2024/03/07 13:15:13;;;;;;;;;;;;;;;;;;4934960;28;92008;-72
2024/03/07 13:17:39;;;;;;;;;;;;;;;;;;4928683;28;93293;-73
2024/03/07 13:20:11;;;;;;;;;;;;;;;;;;4937029;28;92838;-73
2024/03/07 13:22:36;;;;;;;;;;;;;;;;;;4936373;28;93869;-75
2024/03/07 13:25:04;;;;;;;;;;;;;;;;;;4939012;28;93458;-73
2024/03/07 13:27:30;;;;;;;;;;;;;;;;;;4938192;28;92298;-74
2024/03/07 13:29:56;;;;;;;;;;;;;;;;;;4942599;28;92646;-73
2024/03/07 13:32:21;;;;;;;;;;;;;;;;;;4937203;28;95571;-73
2024/03/07 13:34:46;;;;;;;;;;;;;;;;;;4930897;28;92579;-74
2024/03/07 13:37:18;;;;;;;;;;;;;;;;;;4938115;28;93176;-74
2024/03/07 13:39:43;;;;;;;;;;;;;;;;;;4939872;28;92274;-73
2024/03/07 13:42:11;;;;;;;;;;;;;;;;;;4934572;28;93858;-74
2024/03/07 13:44:37;;;;;;;;;;;;;;;;;;4928028;28;94183;-74
2024/03/07 13:47:02;;;;;;;;;;;;;;;;;;4934046;28;94050;-73
2024/03/07 13:49:27;;;;;;;;;;;;;;;;;;4935501;28;92458;-72
2024/03/07 13:51:59;;;;;;;;;;;;;;;;;;4933350;28;93752;-73
2024/03/07 13:54:34;;;;;;;;;;;;;;;;;;4939236;28;94239;-73
2024/03/07 13:57:19;;;;;;;;;;;;;;;;;;4932719;28;95383;-73
2024/03/07 14:00:13;;;;;;;;;;;;;;;;;;4933316;28;96585;-73
2024/03/07 14:02:57;;;;;;;;;;;;;;;;;;4937396;28;92630;-73
2024/03/07 14:05:22;;;;;;;;;;;;;;;;;;4932970;28;95077;-74
2024/03/07 14:08:00;;;;;;;;;;;;;;;;;;4939925;28;92650;-74
2024/03/07 14:10:40;;;;;;;;;;;;;;;;;;4933148;28;95387;-74
2024/03/07 14:13:25;;;;;;;;;;;;;;;;;;4940062;28;94328;-74
2024/03/07 14:16:09;;;;;;;;;;;;;;;;;;4935925;28;95822;-74
2024/03/07 14:19:03;;;;;;;;;;;;;;;;;;4932742;28;93191;-73
2024/03/07 14:21:50;;;;;;;;;;;;;;;;;;4930796;28;93027;-73
2024/03/07 14:24:16;;;;;;;;;;;;;;;;;;4936695;28;92762;-74
2024/03/07 14:27:00;;;;;;;;;;;;;;;;;;4942003;28;92989;-74
2024/03/07 14:29:32;;;;;;;;;;;;;;;;;;4932218;28;94058;-73
2024/03/07 14:31:57;;;;;;;;;;;;;;;;;;4938011;28;92201;-74
2024/03/07 14:34:42;;;;;;;;;;;;;;;;;;4928858;28;93153;-73
2024/03/07 14:37:22;;;;;;;;;;;;;;;;;;4931543;28;95656;-73
2024/03/07 14:39:48;;;;;;;;;;;;;;;;;;4934616;28;93468;-73
2024/03/07 14:42:15;;;;;;;;;;;;;;;;;;4928667;28;92557;-73
2024/03/07 14:44:42;;;;;;;;;;;;;;;;;;4927876;28;92362;-73
2024/03/07 14:47:10;;;;;;;;;;;;;;;;;;4941773;28;92663;-73
2024/03/07 14:49:36;;;;;;;;;;;;;;;;;;4925654;28;94093;-74
2024/03/07 14:52:02;;;;;;;;;;;;;;;;;;4935643;28;92466;-74
2024/03/07 14:54:28;;;;;;;;;;;;;;;;;;4937499;28;92674;-74
2024/03/07 14:56:54;;;;;;;;;;;;;;;;;;4934561;28;91992;-74
2024/03/07 14:59:20;;;;;;;;;;;;;;;;;;4937450;28;92703;-74
2024/03/07 15:01:46;;;;;;;;;;;;;;;;;;4936317;28;93681;-74
2024/03/07 15:04:12;;;;;;;;;;;;;;;;;;4934591;28;93705;-75
2024/03/07 15:06:42;;;;;;;;;;;;;;;;;;4940393;28;93387;-75
2024/03/07 15:09:09;;;;;;;;;;;;;;;;;;4940600;28;93388;-75
2024/03/07 15:11:35;;;;;;;;;;;;;;;;;;4935631;28;92194;-75
2024/03/07 15:14:01;;;;;;;;;;;;;;;;;;4941693;28;95136;-75
2024/03/07 15:16:28;;;;;;;;;;;;;;;;;;4932332;28;92806;-75
2024/03/07 15:18:53;;;;;;;;;;;;;;;;;;4934846;28;93662;-75
2024/03/07 15:21:20;;;;;;;;;;;;;;;;;;4939108;28;91877;-74
2024/03/07 15:23:45;;;;;;;;;;;;;;;;;;4939599;28;92856;-74
2024/03/07 15:26:11;;;;;;;;;;;;;;;;;;4938127;28;93236;-75
2024/03/07 15:28:37;;;;;;;;;;;;;;;;;;4933488;28;93752;-75
2024/03/07 15:31:06;;;;;;;;;;;;;;;;;;4934158;28;92311;-75
2024/03/07 15:33:31;;;;;;;;;;;;;;;;;;4933192;28;92877;-74
2024/03/07 15:35:56;;;;;;;;;;;;;;;;;;4931489;28;95852;-74
2024/03/07 15:38:21;;;;;;;;;;;;;;;;;;4938153;28;92647;-74
2024/03/07 15:40:47;;;;;;;;;;;;;;;;;;4937997;28;93005;-77
2024/03/07 15:43:12;;;;;;;;;;;;;;;;;;4931475;28;93293;-74
2024/03/07 15:45:38;;;;;;;;;;;;;;;;;;4932116;28;95656;-74
2024/03/07 15:48:09;;;;;;;;;;;;;;;;;;4932341;28;92803;-74
2024/03/07 15:50:36;;;;;;;;;;;;;;;;;;4934686;28;93082;-75
2024/03/07 15:53:01;;;;;;;;;;;;;;;;;;4936084;28;93584;-74
2024/03/07 15:55:29;;;;;;;;;;;;;;;;;;4937944;28;93238;-74
2024/03/07 15:57:55;;;;;;;;;;;;;;;;;;4933815;28;92841;-74
2024/03/07 16:00:24;;;;;;;;;;;;;;;;;;4933312;28;92964;-74
2024/03/07 16:02:49;;;;;;;;;;;;;;;;;;4934788;28;92899;-74
2024/03/07 16:05:16;;;;;;;;;;;;;;;;;;4937960;28;92439;-74
2024/03/07 16:07:41;;;;;;;;;;;;;;;;;;4932915;28;93912;-74
2024/03/07 16:10:07;;;;;;;;;;;;;;;;;;4937125;28;91805;-75
2024/03/07 16:12:33;;;;;;;;;;;;;;;;;;4946154;28;94190;-74
2024/03/07 16:14:58;;;;;;;;;;;;;;;;;;4932152;28;94440;-74
2024/03/07 16:17:23;;;;;;;;;;;;;;;;;;4939555;28;94077;-74
2024/03/07 16:19:49;;;;;;;;;;;;;;;;;;4935920;28;93276;-73
2024/03/07 16:22:14;;;;;;;;;;;;;;;;;;4934962;28;95363;-73
2024/03/07 16:24:39;;;;;;;;;;;;;;;;;;4930300;28;92647;-73
2024/03/07 16:27:04;;;;;;;;;;;;;;;;;;4939145;28;92566;-73
2024/03/07 16:29:29;;;;;;;;;;;;;;;;;;4934092;28;92612;-73
2024/03/07 16:31:55;;;;;;;;;;;;;;;;;;4934378;28;92890;-73
2024/03/07 16:34:21;;;;;;;;;;;;;;;;;;4936376;28;92221;-73
2024/03/07 16:36:46;;;;;;;;;;;;;;;;;;4934447;28;92495;-74
2024/03/07 16:39:11;;;;;;;;;;;;;;;;;;4930466;28;93149;-73
2024/03/07 16:41:37;;;;;;;;;;;;;;;;;;4936354;28;96772;-74
2024/03/07 16:44:02;;;;;;;;;;;;;;;;;;4932610;28;92317;-74